Latest Weather Observations for Shark Bay Airport

IDW60801

Issued at 3:13 pm WST Saturday 20 April 2024 (issued every 10 minutes, with the page automatically refreshed every 10 minutes)

About weather observations | Map of weather stations | Latest weather observations for WA | Other Formats
Station Details ID: 006105 Name: SHARK BAY AIRPORT Lat: -25.89 Lon: 113.58 Height: 33.8 m
Data from the previous 72 hours. | See also: Recent months at Shark Bay Airport
Date/Time
WST
Temp
°C
App
Temp
°C
Dew
Point
°C
Rel
Hum
%
Delta-T
°C
Wind Press
QNH
hPa
Press
MSL
hPa
Rain since
9am
mm
Dir  Spd
km/h
Gust
km/h
Spd
kts
Gust
kts
20/03:00pm 33.6 29.2 0.3 12 16.4 ESE 13 26 7 14 1016.2 1016.1 0.0
20/02:30pm 33.8 28.9 -0.7 11 16.7 ENE 15 30 8 16 1016.4 1016.3 0.0
20/02:00pm 33.8 27.9 -0.7 11 16.7 ENE 20 30 11 16 1016.5 1016.4 0.0
20/01:30pm 33.8 28.1 0.5 12 16.5 NNE 20 30 11 16 1016.9 1016.8 0.0
20/01:00pm 33.6 27.7 1.4 13 16.1 NE 22 35 12 19 1017.2 1017.1 0.0
20/12:30pm 33.3 26.7 2.2 14 15.8 ENE 26 37 14 20 1017.5 1017.4 0.0
20/12:00pm 32.4 26.5 1.5 14 15.4 ENE 22 37 12 20 1018.0 1017.9 0.0
20/11:30am 31.6 25.5 2.7 16 14.6 ENE 24 33 13 18 1018.8 1018.7 0.0
20/11:00am 31.2 25.3 4.1 18 14.0 ENE 24 35 13 19 1019.2 1019.1 0.0
20/10:30am 29.5 23.3 4.2 20 13.0 ENE 26 35 14 19 1019.4 1019.3 0.0
20/10:00am 28.7 23.1 5.5 23 12.1 ENE 24 32 13 17 1019.5 1019.4 0.0
20/09:30am 27.8 21.4 5.4 24 11.6 ENE 28 37 15 20 1019.6 1019.5 0.0
20/09:00am 27.2 21.0 6.0 26 11.0 ENE 28 39 15 21 1019.7 1019.6 0.0
20/08:30am 26.2 20.4 6.3 28 10.4 ENE 26 37 14 20 1019.5 1019.4 0.0
20/08:00am 24.8 20.6 7.4 33 9.1 E 19 26 10 14 1019.3 1019.2 0.0
20/07:30am 21.6 18.4 8.5 43 6.9 E 15 19 8 10 1018.9 1018.8 0.0
20/07:00am 19.1 15.7 9.0 52 5.3 E 17 20 9 11 1018.8 1018.7 0.0
20/06:30am 19.0 15.8 10.0 56 4.8 E 17 20 9 11 1018.5 1018.4 0.0
20/06:00am 19.2 16.9 10.5 57 4.7 ESE 13 17 7 9 1018.4 1018.3 0.0
20/05:30am 20.1 17.1 10.8 55 5.1 ESE 17 20 9 11 1018.0 1017.9 0.0
20/05:00am 20.0 17.5 11.0 56 4.9 ESE 15 17 8 9 1017.8 1017.7 0.0
20/04:30am 20.3 17.4 11.0 55 5.1 ESE 17 20 9 11 1017.8 1017.7 0.0
20/04:00am 20.8 17.6 11.2 54 5.3 ESE 19 22 10 12 1017.7 1017.6 0.0
20/03:30am 20.7 17.5 11.3 55 5.2 ESE 19 20 10 11 1017.5 1017.4 0.0
20/03:00am 20.8 17.7 11.7 56 5.1 ESE 19 22 10 12 1017.5 1017.4 0.0
20/02:30am 21.0 18.4 11.9 56 5.1 ESE 17 20 9 11 1017.6 1017.5 0.0
20/02:00am 20.3 17.8 12.3 60 4.5 ESE 17 19 9 10 1017.7 1017.6 0.0
20/01:30am 19.7 18.2 14.1 70 3.2 SE 15 17 8 9 1017.9 1017.8 0.0
20/01:00am 19.5 18.7 15.0 75 2.6 SE 13 15 7 8 1018.1 1018.0 0.0
20/12:30am 19.9 19.8 16.0 78 2.3 SE 11 15 6 8 1018.1 1018.0 0.0
20/12:00am 20.9 20.5 17.1 79 2.3 SSE 15 19 8 10 1018.1 1018.0 0.0
 
Date/Time
WST
Temp
°C
App
Temp
°C
Dew
Point
°C
Rel
Hum
%
Delta-T
°C
Wind Press
QNH
hPa
Press
MSL
hPa
Rain since
9am
mm
Dir  Spd
km/h
Gust
km/h
Spd
kts
Gust
kts
19/11:30pm 21.4 21.6 17.6 79 2.3 S 13 19 7 10 1018.4 1018.3 0.0
19/11:00pm 22.1 21.6 17.7 76 2.7 S 17 24 9 13 1018.5 1018.4 0.0
19/10:30pm 22.4 21.7 17.3 73 3.1 S 17 24 9 13 1018.6 1018.5 0.0
19/10:00pm 22.7 21.8 16.9 70 3.6 S 17 22 9 12 1018.8 1018.7 0.0
19/09:30pm 23.1 21.8 15.9 64 4.4 S 17 22 9 12 1019.0 1018.9 0.0
19/09:00pm 23.9 21.5 13.7 52 6.0 S 19 22 10 12 1018.8 1018.7 0.0
19/08:30pm 23.8 20.8 11.8 47 6.8 S 19 24 10 13 1018.6 1018.5 0.0
19/08:00pm 24.1 20.5 10.4 42 7.6 S 20 24 11 13 1018.3 1018.2 0.0
19/07:30pm 24.3 20.4 7.0 33 9.0 S 17 22 9 12 1017.8 1017.7 0.0
19/07:00pm 24.5 20.9 8.5 36 8.6 S 17 20 9 11 1017.6 1017.5 0.0
19/06:30pm 26.2 21.7 2.2 21 11.6 S 15 17 8 9 1017.3 1017.2 0.0
19/06:00pm 28.9 24.5 -2.3 13 14.2 SSE 11 13 6 7 1016.9 1016.8 0.0
19/05:30pm 30.6 25.6 -0.9 13 14.9 SE 15 19 8 10 1016.7 1016.6 0.0
19/05:00pm 31.4 26.4 -1.4 12 15.4 SE 15 22 8 12 1016.6 1016.5 0.0
19/04:30pm 31.8 26.1 -1.1 12 15.6 ESE 19 26 10 14 1016.4 1016.3 0.0
19/04:00pm 31.9 26.5 -1.0 12 15.6 ESE 17 26 9 14 1016.3 1016.2 0.0
19/03:30pm 31.8 27.2 -1.1 12 15.6 E 13 22 7 12 1016.3 1016.2 0.0
19/03:00pm 32.0 27.0 -0.9 12 15.7 E 15 24 8 13 1016.4 1016.3 0.0
19/02:30pm 32.1 26.8 -3.3 10 16.2 SE 15 20 8 11 1016.6 1016.5 0.0
19/02:00pm 31.7 25.8 -2.3 11 15.8 ESE 19 30 10 16 1017.0 1016.9 0.0
19/01:30pm 31.5 26.3 -0.2 13 15.3 ESE 17 30 9 16 1017.2 1017.1 0.0
19/01:00pm 31.6 26.9 0.9 14 15.0 ESE 15 28 8 15 1017.6 1017.5 0.0
19/12:30pm 31.5 26.9 3.5 17 14.3 E 17 26 9 14 1017.9 1017.8 0.0
19/12:00pm 31.4 26.1 1.7 15 14.7 E 19 28 10 15 1018.4 1018.3 0.0
19/11:30am 31.0 25.7 3.1 17 14.2 ENE 20 28 11 15 1018.8 1018.7 0.0
19/11:00am 29.8 23.7 2.9 18 13.5 ENE 24 30 13 16 1019.2 1019.1 0.0
19/10:30am 29.3 23.4 4.0 20 12.9 ENE 24 33 13 18 1019.4 1019.3 0.0
19/10:00am 28.7 22.5 4.2 21 12.5 ENE 26 33 14 18 1019.6 1019.5 0.0
19/09:30am 27.5 21.2 3.9 22 11.9 ENE 26 37 14 20 1019.6 1019.5 0.0
19/09:00am 27.0 20.5 4.7 24 11.3 E 28 39 15 21 1019.6 1019.5 0.0
19/08:30am 26.3 19.6 5.8 27 10.6 E 30 41 16 22 1019.6 1019.5 0.0
19/08:00am 25.8 20.6 7.4 31 9.7 E 24 33 13 18 1019.5 1019.4 0.0
19/07:30am 24.5 20.7 8.9 37 8.4 E 19 24 10 13 1019.4 1019.3 0.0
19/07:00am 22.9 19.3 8.2 39 7.7 E 17 20 9 11 1019.2 1019.1 0.0
19/06:30am 23.6 19.7 8.5 38 8.1 E 19 24 10 13 1018.9 1018.8 0.0
19/06:00am 24.3 19.6 7.9 35 8.7 ENE 22 30 12 16 1018.5 1018.4 0.0
19/05:30am 24.4 20.1 8.0 35 8.7 ENE 20 28 11 15 1018.2 1018.1 0.0
19/05:00am 24.2 20.2 9.0 38 8.2 ENE 20 30 11 16 1018.0 1017.9 0.0
19/04:30am 23.0 19.9 10.4 45 6.9 ENE 17 20 9 11 1017.9 1017.8 0.0
19/04:00am 22.5 19.7 12.7 54 5.6 E 19 22 10 12 1017.8 1017.7 0.0
19/03:30am 21.5 19.1 12.6 57 5.1 E 17 20 9 11 1017.7 1017.6 0.0
19/03:00am 20.8 18.3 12.2 58 4.8 E 17 20 9 11 1017.7 1017.6 0.0
19/02:30am 20.1 18.0 12.3 61 4.4 E 15 17 8 9 1017.8 1017.7 0.0
19/02:00am 20.8 19.8 13.3 62 4.3 E 11 15 6 8 1017.6 1017.5 0.0
19/01:30am 21.7 20.5 13.9 61 4.5 E 13 15 7 8 1017.6 1017.5 0.0
19/01:00am 23.2 21.7 14.2 57 5.3 ESE 15 17 8 9 1017.8 1017.7 0.0
19/12:30am 23.9 22.5 14.6 56 5.5 ESE 15 17 8 9 1018.0 1017.9 0.0
19/12:00am 24.2 23.2 14.6 55 5.7 ESE 13 17 7 9 1018.1 1018.0 0.0
 
Date/Time
WST
Temp
°C
App
Temp
°C
Dew
Point
°C
Rel
Hum
%
Delta-T
°C
Wind Press
QNH
hPa
Press
MSL
hPa
Rain since
9am
mm
Dir  Spd
km/h
Gust
km/h
Spd
kts
Gust
kts
18/11:30pm 24.3 23.0 13.8 52 6.2 SE 13 17 7 9 1018.2 1018.1 0.0
18/11:00pm 24.8 23.1 13.7 50 6.5 SE 15 22 8 12 1018.4 1018.3 0.0
18/10:30pm 25.2 23.8 14.6 51 6.3 SSE 15 20 8 11 1018.5 1018.4 0.0
18/10:00pm 25.3 23.6 13.5 48 6.9 SSE 15 20 8 11 1018.7 1018.6 0.0
18/09:30pm 25.9 24.0 14.1 48 7.0 SSE 17 24 9 13 1018.7 1018.6 0.0
18/09:00pm 26.3 24.3 15.4 51 6.6 SSE 20 28 11 15 1018.7 1018.6 0.0
18/08:30pm 26.7 24.6 15.1 49 7.0 S 20 28 11 15 1018.4 1018.3 0.0
18/08:00pm 27.3 25.2 14.7 46 7.6 S 19 24 10 13 1018.2 1018.1 0.0
18/07:30pm 27.7 25.8 15.7 48 7.4 S 20 28 11 15 1017.8 1017.7 0.0
18/07:00pm 27.9 26.0 13.1 40 8.7 SSW 15 17 8 9 1017.3 1017.2 0.0
18/06:30pm 29.1 25.9 9.8 30 10.8 SSW 17 19 9 10 1017.0 1016.9 0.0
18/06:00pm 30.6 27.2 7.7 24 12.5 SSW 15 20 8 11 1016.7 1016.6 0.0
18/05:30pm 31.7 27.9 9.8 26 12.5 SSW 20 24 11 13 1016.5 1016.4 0.0
18/05:00pm 32.8 29.3 10.8 26 12.8 SSW 20 26 11 14 1016.4 1016.3 0.0
18/04:30pm 33.5 30.0 10.2 24 13.4 SW 19 26 10 14 1016.4 1016.3 0.0
18/04:00pm 33.2 29.4 9.9 24 13.3 SW 20 26 11 14 1016.5 1016.4 0.0
18/03:30pm 33.3 29.7 10.6 25 13.2 SW 20 24 11 13 1016.6 1016.5 0.0
18/03:00pm 33.1 30.0 11.6 27 12.6 WSW 19 24 10 13 1016.8 1016.7 0.0
18/02:30pm 35.4 32.2 11.1 23 14.3 W 19 24 10 13 1016.8 1016.7 0.0
18/02:00pm 35.7 32.1 10.0 21 14.9 W 19 24 10 13 1016.9 1016.8 0.0
18/01:30pm 35.8 32.6 7.0 17 16.0 N 13 22 7 12 1017.2 1017.1 0.0
18/01:00pm 35.5 32.1 7.6 18 15.6 N 15 33 8 18 1017.6 1017.5 0.0
18/12:30pm 35.4 31.8 8.3 19 15.3 NNE 17 24 9 13 1018.0 1017.9 0.0
18/12:00pm 34.4 31.1 9.6 22 14.2 NE 17 28 9 15 1018.6 1018.5 0.0
18/11:30am 32.7 29.3 10.7 26 12.7 NE 19 28 10 15 1019.1 1019.0 0.0
18/11:00am 31.9 28.1 11.1 28 12.1 ENE 22 32 12 17 1019.5 1019.4 0.0
18/10:30am 31.6 27.3 10.9 28 12.0 ENE 24 33 13 18 1019.8 1019.7 0.0
18/10:00am 31.0 27.8 11.9 31 11.2 ENE 20 28 11 15 1020.2 1020.1 0.0
18/09:30am 29.3 26.7 13.9 39 9.2 E 20 28 11 15 1020.3 1020.2 0.0
18/09:00am 28.5 26.4 14.7 43 8.3 E 19 26 10 14 1020.4 1020.3 0.0
18/08:30am 27.0 25.0 15.4 49 7.1 ESE 20 24 11 13 1020.2 1020.1 0.0
18/08:00am 25.7 25.2 16.8 58 5.5 ESE 15 22 8 12 1020.0 1019.9 0.0
18/07:30am 23.1 23.5 17.3 70 3.6 ESE 11 13 6 7 1019.6 1019.5 0.0
18/07:00am 20.2 20.3 16.6 80 2.2 ESE 11 11 6 6 1019.3 1019.2 0.0
18/06:30am 21.0 20.8 16.8 77 2.6 ESE 13 15 7 8 1018.9 1018.8 0.0
18/06:00am 21.8 21.5 16.5 72 3.2 ESE 13 17 7 9 1018.7 1018.6 0.0
18/05:30am 21.4 21.6 16.8 75 2.8 ESE 11 13 6 7 1018.6 1018.5 0.0
18/05:00am 20.8 21.3 16.6 77 2.5 ESE 9 11 5 6 1018.6 1018.5 0.0
18/04:30am 20.1 20.3 15.7 76 2.6 ESE 9 13 5 7 1018.4 1018.3 0.0
18/04:00am 20.3 19.9 15.3 73 3.0 E 11 13 6 7 1018.4 1018.3 0.0
18/03:30am 21.3 20.7 14.7 66 3.9 ESE 11 15 6 8 1018.3 1018.2 0.0
18/03:00am 21.9 21.3 14.5 63 4.3 SSE 11 13 6 7 1018.1 1018.0 0.0
18/02:30am 21.6 20.5 14.3 63 4.3 SSE 13 15 7 8 1018.0 1017.9 0.0
18/02:00am 21.9 20.9 14.5 63 4.3 SSE 13 17 7 9 1018.1 1018.0 0.0
18/01:30am 22.2 21.5 15.3 65 4.1 SE 13 13 7 7 1018.3 1018.2 0.0
18/01:00am 22.4 22.7 15.0 63 4.4 ESE 7 9 4 5 1018.0 1017.9 0.0
18/12:30am 24.2 25.4 13.7 52 6.1 CALM 0 6 0 3 1017.9 1017.8 0.0
18/12:00am 24.2 24.4 14.3 54 5.8 SE 6 7 3 4 1018.0 1017.9 0.0
 
Date/Time
WST
Temp
°C
App
Temp
°C
Dew
Point
°C
Rel
Hum
%
Delta-T
°C
Wind Press
QNH
hPa
Press
MSL
hPa
Rain since
9am
mm
Dir  Spd
km/h
Gust
km/h
Spd
kts
Gust
kts
17/11:30pm 25.1 26.7 14.9 53 6.1 CALM 0 7 0 4 1018.5 1018.4 0.0
17/11:00pm 25.7 25.6 16.0 55 5.9 S 11 15 6 8 1018.8 1018.7 0.0
17/10:30pm 25.7 25.8 16.5 56 5.7 SSE 11 13 6 7 1019.1 1019.0 0.0
17/10:00pm 27.3 28.3 14.3 45 7.8 ESE 2 9 1 5 1019.0 1018.9 0.0
17/09:30pm 27.3 27.2 15.0 47 7.5 ESE 9 17 5 9 1018.8 1018.7 0.0
17/09:00pm 29.0 26.2 13.2 37 9.4 ENE 20 32 11 17 1018.2 1018.1 0.0
17/08:30pm 28.7 26.8 14.1 40 8.8 ENE 17 24 9 13 1017.8 1017.7 0.0
17/08:00pm 28.8 26.3 13.5 39 9.1 ENE 19 24 10 13 1017.5 1017.4 0.0
17/07:30pm 30.0 25.8 11.0 31 10.9 ENE 24 33 13 18 1017.0 1016.9 0.0
17/07:00pm 29.3 28.0 11.4 33 10.3 S 9 11 5 6 1016.7 1016.6 0.0
17/06:30pm 29.5 29.3 12.9 36 9.8 S 6 9 3 5 1016.5 1016.4 0.0
17/06:00pm 30.2 29.7 13.9 37 9.8 NW 9 13 5 7 1016.5 1016.4 0.0
17/05:52pm 31.3 28.7 10.6 28 11.9 E 15 24 8 13 1016.4 1016.3 0.0
17/05:37pm 31.8 28.3 8.7 24 12.9 E 17 26 9 14 1016.2 1016.1 0.0
17/05:30pm 31.4 29.5 11.7 29 11.5 ENE 13 19 7 10 1016.5 1016.4 0.0
17/05:00pm 32.0 29.2 11.2 28 12.1 ENE 17 22 9 12 1016.3 1016.2 0.0
17/04:30pm 32.5 30.0 11.1 27 12.5 ENE 15 20 8 11 1016.3 1016.2 0.0
17/04:00pm 30.6 30.1 15.8 40 9.2 SW 13 15 7 8 1016.1 1016.0 0.0
17/03:30pm 34.2 32.7 10.7 24 13.7 E 9 13 5 7 1015.6 1015.5 0.0

Other formats

Comma delimited format used in spreadsheet applications
http://www.bom.gov.au/fwo/IDW60801/IDW60801.95402.axf

JavaScript Object Notation format (JSON) in row-major order
http://www.bom.gov.au/fwo/IDW60801/IDW60801.95402.json

Data quality

Most of these data are generated automatically and are frequently updated. Quality checks on data are not normally performed. It is possible for incorrect values to appear. Refer to information at About Latest Weather Observations and please check the disclaimer before using these data.